Search for airport 
image banner adimage banner adimage banner ad
image banner ad

KSNS - Salinas Muni

Located in Salinas, United States

ICAO - SNS, IATA -

Data provided by Airmate  

General information

Coordinates: N36°39'46" W121°36'23"
Elevation is 84 feet MSL.
Magnetic variation is 16° East
View others Airports in California

Operational data

Special qualification required
Current time UTC:
Current local time:
Weather
TAF: KSNS 210541Z 2106/2206 VRB05KT P6SM BKN012 FM211800 36005KT P6SM SCT015 FM212000 30012G19KT P6SM BKN250 FM220100 32006KT P6SM BKN015
View NOTAMs / SUP AIP / TFR affecting this airport [VIEW]
Communications frequencies: [VIEW]

Runways:

RWY identifierQFULength (ft)Width (ft)SurfaceLDA (ft)
0897°6004150ASPH
26277°6004150ASPH
13148°4825150ASPH
31328°4825150ASPH

Airport contact information

Address: Salinas United States

Other aviation service providers

Flight schools

Aerodynamic Aviation - Salinas

Aerodynamic Aviation - Salinas

Satellite view of KSNS